Terminal Aerodrome Forecast
Issued by NWS

Home | Current Version | Previous Version | Text Only | Print | Product List | Glossary On
Versions: 1 2 3 4 5 6 7 8 9 10 11 12 13 14 15
691
FTUS43 KPAH 180520
TAFCGI
TAF
KCGI 180520Z 1806/1906 VRB05KT P6SM SCT150 WS020/22040KT
     FM180900 18009KT P6SM SCT150
     FM181200 22015G24KT P6SM SCT040
     FM181800 26019G29KT P6SM FEW040
     FM190000 31015G25KT P6SM FEW040=

USA.gov is the U.S. government's official web portal to all federal, state and local government web resources and services.